Terminal Aerodrome Forecast
Issued by NWS

Current Version | Previous Version | Text Only | Print | Product List | Glossary On
Versions: 1 2 3 4 5 6 7 8 9 10 11 12
000
FTUS46 KHNX 021733
TAFFAT
TAF
KFAT 021733Z 0218/0318 27005KT P6SM FEW250
     FM030100 31011KT P6SM FEW250
     FM031000 31006KT P6SM FEW250=

USA.gov is the U.S. government's official web portal to all federal, state and local government web resources and services.